createdAt,value
2022-09-12T03:48:43.951Z,96859.66
2022-09-12T03:50:46.576Z,96853.03
2022-09-12T03:52:49.568Z,96852.78
2022-09-12T03:54:52.317Z,96860.75
2022-09-12T03:56:55.000Z,96855.25
2022-09-12T03:58:57.776Z,96857.47
2022-09-12T04:01:00.557Z,96856.44
2022-09-12T04:03:03.175Z,96854.41
2022-09-12T04:05:07.840Z,96858.50
2022-09-12T04:07:10.890Z,96855.06
2022-09-12T04:09:13.561Z,96858.03
2022-09-12T04:11:16.547Z,96854.03
2022-09-12T04:13:19.182Z,96855.41
2022-09-12T04:15:21.837Z,96858.66
2022-09-12T04:17:24.506Z,96850.84
2022-09-12T04:19:29.468Z,96859.19
2022-09-12T04:21:33.816Z,96853.81
2022-09-12T04:23:36.763Z,96855.44
2022-09-12T04:25:39.410Z,96853.03
2022-09-12T04:27:42.538Z,96854.34
2022-09-12T04:29:45.185Z,96854.34
2022-09-12T04:31:48.051Z,96864.03
2022-09-12T04:33:54.831Z,96861.34
2022-09-12T04:35:57.632Z,96860.53
2022-09-12T04:38:01.643Z,96861.09
2022-09-12T04:40:04.525Z,96856.25
2022-09-12T04:42:07.435Z,96859.19
2022-09-12T04:44:13.214Z,96856.78
2022-09-12T04:46:19.702Z,96861.34
2022-09-12T04:48:22.387Z,96860.78
2022-09-12T04:50:25.134Z,96859.97
2022-09-12T04:52:27.950Z,96865.09
2022-09-12T04:54:32.018Z,96871.28
2022-09-12T04:56:38.558Z,96865.91
2022-09-12T04:58:41.200Z,96859.72
2022-09-12T05:00:43.920Z,96863.75
2022-09-12T05:02:46.545Z,96865.38
2022-09-12T05:04:49.160Z,96869.69
2022-09-12T05:06:51.804Z,96865.13
2022-09-12T05:08:55.933Z,96857.88
2022-09-12T05:11:03.573Z,96866.47
2022-09-12T05:13:06.311Z,96863.25
2022-09-12T05:15:10.144Z,96858.69
2022-09-12T05:17:12.958Z,96859.81
2022-09-12T05:19:15.577Z,96866.53
2022-09-12T05:21:20.319Z,96857.69
2022-09-12T05:23:24.748Z,96861.97
2022-09-12T05:25:27.451Z,96863.59
2022-09-12T05:27:31.526Z,96864.16
2022-09-12T05:29:34.207Z,96867.91
2022-09-12T05:31:37.626Z,96866.03
2022-09-12T05:33:43.137Z,96875.97
2022-09-12T05:35:52.304Z,96875.97
2022-09-12T05:37:54.981Z,96871.66
2022-09-12T05:39:59.655Z,96880.78
2022-09-12T05:42:02.506Z,96886.44
2022-09-12T05:44:08.697Z,96887.00
2022-09-12T05:46:13.376Z,96887.81
2022-09-12T05:48:18.387Z,96886.78
2022-09-12T05:50:23.809Z,96890.25
2022-09-12T05:52:26.578Z,96884.06
2022-09-12T05:54:31.687Z,96883.00
2022-09-12T05:56:38.988Z,96881.94
2022-09-12T05:58:43.384Z,96877.63
2022-09-12T06:00:49.574Z,96884.06
2022-09-12T06:02:53.099Z,96887.81
2022-09-12T06:04:57.191Z,96897.50
2022-09-12T06:06:59.939Z,96893.75
2022-09-12T06:09:05.401Z,96898.06
2022-09-12T06:11:09.400Z,96887.31
2022-09-12T06:13:12.042Z,96897.00
2022-09-12T06:15:16.572Z,96890.81
2022-09-12T06:17:20.780Z,96896.44
2022-09-12T06:19:25.226Z,96900.44
2022-09-12T06:21:28.994Z,96890.50
2022-09-12T06:23:31.799Z,96896.94
2022-09-12T06:25:34.492Z,96894.81
2022-09-12T06:27:37.142Z,96895.88
2022-09-12T06:29:39.856Z,96885.63
2022-09-12T06:31:44.252Z,96895.31
2022-09-12T06:33:51.735Z,96891.56
2022-09-12T06:35:54.884Z,96893.69
2022-09-12T06:37:57.722Z,96894.25
2022-09-12T06:40:02.047Z,96892.63
2022-09-12T06:42:05.317Z,96895.88
2022-09-12T06:44:08.094Z,96904.50
2022-09-12T06:46:13.265Z,96898.63
2022-09-12T06:48:16.313Z,96897.53
2022-09-12T06:50:20.707Z,96897.28
2022-09-12T06:52:23.388Z,96899.72
2022-09-12T06:54:26.419Z,96898.63
2022-09-12T06:56:30.071Z,96899.72
2022-09-12T06:58:32.749Z,96896.75
2022-09-12T07:00:35.556Z,96902.94
2022-09-12T07:02:38.302Z,96908.84
2022-09-12T07:04:41.486Z,96904.53
2022-09-12T07:06:46.020Z,96912.06
2022-09-12T07:08:49.575Z,96901.91
2022-09-12T07:10:52.782Z,96907.28
2022-09-12T07:12:56.137Z,96903.25
2022-09-12T07:14:59.277Z,96905.69
2022-09-12T07:17:02.151Z,96902.75
2022-09-12T07:19:07.108Z,96896.56
2022-09-12T07:21:14.180Z,96900.56
2022-09-12T07:23:18.340Z,96901.94
2022-09-12T07:25:24.611Z,96904.63
2022-09-12T07:27:28.301Z,96897.66
2022-09-12T07:29:37.210Z,96900.34
2022-09-12T07:31:42.246Z,96900.34
2022-09-12T07:33:49.056Z,96893.66
2022-09-12T07:35:54.643Z,96900.41
2022-09-12T07:37:57.687Z,96891.25
2022-09-12T07:40:02.317Z,96897.19
2022-09-12T07:42:05.887Z,96892.88
2022-09-12T07:44:08.906Z,96898.25
2022-09-12T07:46:12.699Z,96898.00
2022-09-12T07:48:17.057Z,96890.75
2022-09-12T07:50:20.008Z,96900.41
2022-09-12T07:52:23.172Z,96897.25
2022-09-12T07:54:26.647Z,96895.09
2022-09-12T07:56:34.607Z,96897.78
2022-09-12T07:58:45.378Z,96888.91
2022-09-12T08:00:50.240Z,96889.72
2022-09-12T08:02:54.439Z,96891.34
2022-09-12T08:04:58.126Z,96894.56
2022-09-12T08:07:00.902Z,96892.44
2022-09-12T08:09:04.759Z,96895.44
2022-09-12T08:11:10.034Z,96890.88
2022-09-12T08:13:14.316Z,96897.31
2022-09-12T08:15:17.769Z,96892.75
2022-09-12T08:17:23.221Z,96892.50
2022-09-12T08:19:29.135Z,96894.94
2022-09-12T08:21:33.596Z,96903.56
2022-09-12T08:23:36.643Z,96897.91
2022-09-12T08:25:39.573Z,96901.16
2022-09-12T08:27:43.725Z,96906.53
2022-09-12T08:29:47.959Z,96913.03
2022-09-12T08:31:57.016Z,96910.06
2022-09-12T08:34:00.840Z,96913.31
2022-09-12T08:36:06.211Z,96902.28
2022-09-12T08:38:09.021Z,96904.44
2022-09-12T08:40:19.111Z,96908.75
2022-09-12T08:42:41.682Z,96916.00
2022-09-12T08:45:05.081Z,96904.75
2022-09-12T08:47:19.428Z,96904.75
2022-09-12T08:49:29.107Z,96904.75
2022-09-12T08:51:34.472Z,96899.66
2022-09-12T08:53:38.411Z,96909.09
2022-09-12T08:55:45.972Z,96916.09
2022-09-12T08:57:48.613Z,96922.28
2022-09-12T08:59:54.138Z,96916.88
2022-09-12T09:02:01.219Z,96920.13
2022-09-12T09:04:31.644Z,96918.81
2022-09-12T09:07:01.679Z,96917.75
2022-09-12T09:09:09.896Z,96920.97
2022-09-12T09:11:26.344Z,96915.88
2022-09-12T09:14:01.910Z,96915.88
2022-09-12T09:16:16.932Z,96919.38
2022-09-12T09:18:23.822Z,96915.06
2022-09-12T09:20:31.619Z,96911.84
2022-09-12T09:22:43.784Z,96911.34
2022-09-12T09:24:53.159Z,96914.84
2022-09-12T09:27:02.000Z,96899.78
2022-09-12T09:29:15.365Z,96899.25
2022-09-12T09:31:22.792Z,96896.56
2022-09-12T09:33:29.561Z,96890.63
2022-09-12T09:35:42.180Z,96897.38
2022-09-12T09:37:58.695Z,96890.94
2022-09-12T09:40:13.197Z,96893.09
2022-09-12T09:42:35.551Z,96894.72
2022-09-12T09:44:39.130Z,96898.75
2022-09-12T09:46:43.439Z,96899.31
2022-09-12T09:48:49.557Z,96903.63
2022-09-12T09:50:53.230Z,96899.88
2022-09-12T09:52:59.904Z,96890.97
2022-09-12T09:55:03.324Z,96899.03
2022-09-12T09:57:06.221Z,96896.63
2022-09-12T09:59:11.757Z,96887.22
2022-09-12T10:01:17.464Z,96887.75
2022-09-12T10:03:33.235Z,96888.84
2022-09-12T10:05:46.105Z,96887.53
2022-09-12T10:07:51.461Z,96889.16
2022-09-12T10:10:06.866Z,96882.16
2022-09-12T10:12:22.012Z,96892.63
2022-09-12T10:14:37.653Z,96887.75
2022-09-12T10:16:52.658Z,96876.19
2022-09-12T10:18:58.480Z,96882.94
2022-09-12T10:21:03.596Z,96862.72
2022-09-12T10:23:30.412Z,96866.00
2022-09-12T10:25:33.201Z,96867.91
2022-09-12T10:27:36.959Z,96864.16
2022-09-12T10:29:43.900Z,96863.34
2022-09-12T10:31:52.075Z,96858.25
2022-09-12T10:33:58.377Z,96869.28
2022-09-12T10:36:01.689Z,96867.13
2022-09-12T10:38:07.305Z,96862.56
2022-09-12T10:40:24.753Z,96862.84
2022-09-12T10:42:48.919Z,96865.25
2022-09-12T10:44:55.471Z,96863.91
2022-09-12T10:46:59.698Z,96867.13
2022-09-12T10:49:22.898Z,96859.63
2022-09-12T10:51:29.815Z,96864.47
2022-09-12T10:53:41.766Z,96858.81
2022-09-12T10:56:02.298Z,96858.53
2022-09-12T10:58:17.826Z,96851.28
2022-09-12T11:00:27.622Z,96854.78
2022-09-12T11:02:32.181Z,96857.47
2022-09-12T11:04:53.841Z,96857.47
2022-09-12T11:07:10.434Z,96842.38
2022-09-12T11:09:24.267Z,96842.94
2022-09-12T11:11:43.965Z,96845.34
2022-09-12T11:14:01.010Z,96840.78
2022-09-12T11:16:15.733Z,96840.50
2022-09-12T11:18:38.016Z,96839.16
2022-09-12T11:20:56.500Z,96841.34
2022-09-12T11:23:31.395Z,96839.19
2022-09-12T11:25:41.711Z,96840.25
2022-09-12T11:28:13.308Z,96839.97
2022-09-12T11:30:18.697Z,96828.94
2022-09-12T11:33:01.458Z,96826.00
2022-09-12T11:35:17.128Z,96827.31
2022-09-12T11:37:38.556Z,96823.28
2022-09-12T11:39:44.586Z,96823.00
2022-09-12T11:41:53.525Z,96825.19
2022-09-12T11:44:01.523Z,96820.88
2022-09-12T11:46:13.441Z,96822.47
2022-09-12T11:48:37.624Z,96818.44
2022-09-12T11:50:42.828Z,96810.88
2022-09-12T11:52:46.856Z,96810.63
2022-09-12T11:54:57.790Z,96813.88
2022-09-12T11:57:09.589Z,96818.16
2022-09-12T11:59:19.459Z,96817.09
2022-09-12T12:01:27.271Z,96814.94
2022-09-12T12:03:35.613Z,96812.00
2022-09-12T12:05:44.129Z,96800.94
2022-09-12T12:07:54.039Z,96806.06
2022-09-12T12:12:22.473Z,96803.09
2022-09-12T12:14:31.108Z,96799.59
2022-09-12T12:16:37.138Z,96797.72
2022-09-12T12:18:41.316Z,96797.97
2022-09-12T12:20:44.725Z,96796.09
2022-09-12T12:22:54.115Z,96790.13
2022-09-12T12:25:05.150Z,96783.66
2022-09-12T12:27:25.643Z,96788.25
2022-09-12T12:29:44.323Z,96782.88
2022-09-12T12:32:21.299Z,96784.22
2022-09-12T12:34:29.447Z,96778.00
2022-09-12T12:36:36.593Z,96777.72
2022-09-12T12:38:41.600Z,96785.81
2022-09-12T12:40:44.746Z,96779.63
2022-09-12T12:42:59.770Z,96772.06
2022-09-12T12:45:06.633Z,96765.31
2022-09-12T12:47:18.501Z,96766.91
2022-09-12T12:49:28.318Z,96764.78
2022-09-12T12:51:36.007Z,96760.19
2022-09-12T12:53:43.087Z,96757.22
2022-09-12T12:55:50.586Z,96757.47
2022-09-12T12:57:55.128Z,96763.38
2022-09-12T13:00:02.100Z,96766.91
2022-09-12T13:02:05.927Z,96763.94
2022-09-12T13:04:16.900Z,96759.38
2022-09-12T13:06:32.570Z,96760.97
2022-09-12T13:08:40.783Z,96751.81
2022-09-12T13:10:52.881Z,96746.41
2022-09-12T13:13:00.269Z,96749.63
2022-09-12T13:15:06.145Z,96744.75
2022-09-12T13:17:16.472Z,96744.75
2022-09-12T13:19:27.394Z,96745.28
2022-09-12T13:21:31.117Z,96741.25
2022-09-12T13:23:35.712Z,96736.66
2022-09-12T13:25:38.805Z,96738.28
2022-09-12T13:27:58.817Z,96731.53
2022-09-12T13:30:07.370Z,96732.84
2022-09-12T13:32:10.342Z,96732.56
2022-09-12T13:34:20.359Z,96729.59
2022-09-12T13:36:51.394Z,96721.50
2022-09-12T13:39:21.113Z,96724.19
2022-09-12T13:41:40.390Z,96721.22
2022-09-12T13:43:47.882Z,96727.41
2022-09-12T13:45:53.769Z,96719.59
2022-09-12T13:48:01.016Z,96714.72
2022-09-12T13:50:06.912Z,96711.75
2022-09-12T13:52:18.947Z,96709.06
2022-09-12T13:54:24.586Z,96704.47
2022-09-12T13:56:28.092Z,96699.88
2022-09-12T13:58:33.112Z,96701.19
2022-09-12T14:00:37.912Z,96702.03
2022-09-12T14:02:41.596Z,96693.41
2022-09-12T14:05:12.010Z,96688.53
2022-09-12T14:07:19.069Z,96682.03
2022-09-12T14:09:26.018Z,96682.84
2022-09-12T14:11:31.474Z,96683.09
2022-09-12T14:13:36.455Z,96680.97
2022-09-12T14:15:46.397Z,96672.06
2022-09-12T14:17:52.896Z,96663.16
2022-09-12T14:19:58.648Z,96668.78
2022-09-12T14:22:02.357Z,96672.28
2022-09-12T14:24:08.521Z,96668.53
2022-09-12T14:26:14.850Z,96671.75
2022-09-12T14:28:23.671Z,96672.84
2022-09-12T14:30:31.101Z,96666.66
2022-09-12T14:32:36.595Z,96662.88
2022-09-12T14:34:40.062Z,96668.78
2022-09-12T14:36:46.986Z,96663.91
2022-09-12T14:38:52.632Z,96663.63
2022-09-12T14:41:02.015Z,96657.66
2022-09-12T14:43:05.222Z,96649.31
2022-09-12T14:45:17.271Z,96653.31
2022-09-12T14:47:23.375Z,96658.72
2022-09-12T14:49:32.814Z,96651.44
2022-09-12T14:51:38.049Z,96653.03
2022-09-12T14:53:49.277Z,96653.56
2022-09-12T14:55:56.510Z,96659.75
2022-09-12T14:58:15.637Z,96653.56
2022-09-12T15:00:24.178Z,96644.38
2022-09-12T15:02:27.670Z,96642.75
2022-09-12T15:04:42.034Z,96648.16
2022-09-12T15:06:45.102Z,96644.38
2022-09-12T15:08:47.814Z,96647.06
2022-09-12T15:10:50.703Z,96642.47
2022-09-12T15:13:14.120Z,96644.09
2022-09-12T15:15:19.191Z,96639.78
2022-09-12T15:17:22.398Z,96641.91
2022-09-12T15:19:25.141Z,96644.34
2022-09-12T15:21:29.274Z,96640.56
2022-09-12T15:23:35.790Z,96637.56
2022-09-12T15:25:38.749Z,96639.47
2022-09-12T15:27:42.363Z,96650.56
2022-09-12T15:29:45.130Z,96651.66
2022-09-12T15:31:48.706Z,96650.56
2022-09-12T15:33:51.335Z,96645.16
2022-09-12T15:35:54.270Z,96644.06
2022-09-12T15:37:58.355Z,96633.25
2022-09-12T15:40:01.646Z,96632.97
2022-09-12T15:42:04.441Z,96633.50
2022-09-12T15:44:09.016Z,96630.78
2022-09-12T15:46:13.138Z,96627.28
2022-09-12T15:48:15.786Z,96628.63
2022-09-12T15:50:18.569Z,96625.63
2022-09-12T15:52:21.257Z,96625.91
2022-09-12T15:54:25.239Z,96625.91
2022-09-12T15:56:27.882Z,96617.53
2022-09-12T15:58:30.928Z,96618.63
2022-09-12T16:00:33.554Z,96621.31
2022-09-12T16:02:36.218Z,96622.13
2022-09-12T16:04:38.952Z,96626.72
2022-09-12T16:06:41.699Z,96622.13
2022-09-12T16:08:44.503Z,96621.31
2022-09-12T16:10:53.326Z,96617.81
2022-09-12T16:12:56.066Z,96619.44
2022-09-12T16:14:58.812Z,96615.91
2022-09-12T16:17:01.527Z,96609.72
2022-09-12T16:19:06.236Z,96611.31
2022-09-12T16:21:12.774Z,96606.72
2022-09-12T16:23:17.992Z,96601.88
2022-09-12T16:25:20.652Z,96600.78
2022-09-12T16:27:24.774Z,96595.38
2022-09-12T16:29:28.975Z,96602.91
2022-09-12T16:31:31.976Z,96601.81
2022-09-12T16:33:36.914Z,96596.41
2022-09-12T16:35:39.636Z,96599.91
2022-09-12T16:37:42.518Z,96591.00
2022-09-12T16:39:45.392Z,96595.84
2022-09-12T16:41:48.199Z,96594.22
2022-09-12T16:43:52.932Z,96587.44
2022-09-12T16:46:02.816Z,96585.56
2022-09-12T16:48:05.692Z,96586.09
2022-09-12T16:50:09.796Z,96585.28
2022-09-12T16:52:16.431Z,96578.00
2022-09-12T16:54:19.110Z,96572.88
2022-09-12T16:56:22.325Z,96573.69
2022-09-12T16:58:25.424Z,96574.50
2022-09-12T17:00:29.451Z,96569.34
2022-09-12T17:02:32.178Z,96568.28
2022-09-12T17:04:37.166Z,96571.00
2022-09-12T17:06:40.060Z,96569.09
2022-09-12T17:08:44.737Z,96567.19
2022-09-12T17:10:47.736Z,96566.09
2022-09-12T17:12:50.538Z,96571.50
2022-09-12T17:14:53.181Z,96562.88
2022-09-12T17:16:57.311Z,96566.66
2022-09-12T17:19:00.025Z,96568.84
2022-09-12T17:21:02.715Z,96570.72
2022-09-12T17:23:09.522Z,96576.41
2022-09-12T17:25:12.610Z,96571.59
2022-09-12T17:27:15.279Z,96577.00
2022-09-12T17:29:18.160Z,96571.09
2022-09-12T17:31:20.974Z,96566.78
2022-09-12T17:33:25.850Z,96564.34
2022-09-12T17:35:29.065Z,96572.72
2022-09-12T17:37:32.273Z,96572.72
2022-09-12T17:39:34.992Z,96569.78
2022-09-12T17:41:37.987Z,96578.69
2022-09-12T17:43:41.016Z,96584.38
2022-09-12T17:45:43.653Z,96584.66
2022-09-12T17:47:47.181Z,96588.47
2022-09-12T17:49:52.994Z,96584.41
2022-09-12T17:51:56.491Z,96582.00
2022-09-12T17:54:01.060Z,96584.97
2022-09-12T17:56:04.412Z,96577.97
2022-09-12T17:58:07.803Z,96579.34
2022-09-12T18:00:11.804Z,96570.75
2022-09-12T18:02:13.741Z,96580.72
2022-09-12T18:04:17.232Z,96583.72
2022-09-12T18:06:21.231Z,96576.69
2022-09-12T18:08:25.079Z,96576.16
2022-09-12T18:10:27.856Z,96581.56
2022-09-12T18:12:30.602Z,96571.03
2022-09-12T18:14:33.247Z,96580.25
2022-09-12T18:16:36.092Z,96571.63
2022-09-12T18:18:39.439Z,96585.41
2022-09-12T18:20:51.474Z,96583.00
2022-09-12T18:22:55.889Z,96590.53
2022-09-12T18:24:58.577Z,96588.13
2022-09-12T18:27:01.796Z,96594.59
2022-09-12T18:29:05.754Z,96594.09
2022-09-12T18:31:12.775Z,96598.69
2022-09-12T18:33:15.740Z,96600.06
2022-09-12T18:35:21.665Z,96610.00
2022-09-12T18:37:26.764Z,96603.81
2022-09-12T18:39:30.743Z,96607.84
2022-09-12T18:41:33.863Z,96609.75
2022-09-12T18:43:37.046Z,96601.94
2022-09-12T18:45:40.182Z,96613.00
2022-09-12T18:47:42.915Z,96613.28
2022-09-12T18:49:46.571Z,96610.88
2022-09-12T18:51:49.227Z,96620.88
2022-09-12T18:53:56.871Z,96625.47
2022-09-12T18:56:06.153Z,96626.53
2022-09-12T18:58:08.901Z,96620.06
2022-09-12T19:00:13.605Z,96627.09
2022-09-12T19:02:17.212Z,96620.06
2022-09-12T19:04:19.890Z,96621.97
2022-09-12T19:06:25.133Z,96624.94
2022-09-12T19:08:28.343Z,96628.72
2022-09-12T19:10:31.356Z,96627.94
2022-09-12T19:12:35.449Z,96629.53
2022-09-12T19:14:38.275Z,96631.44
2022-09-12T19:16:40.944Z,96623.63
2022-09-12T19:18:44.049Z,96625.78
2022-09-12T19:20:51.869Z,96622.28
2022-09-12T19:22:54.599Z,96627.97
2022-09-12T19:24:57.369Z,96618.53
2022-09-12T19:29:04.824Z,96631.19
2022-09-12T19:31:08.752Z,96625.81
2022-09-12T19:33:12.208Z,96638.50
2022-09-12T19:35:15.218Z,96635.78
2022-09-12T19:37:18.674Z,96636.88
2022-09-12T19:39:21.914Z,96634.47
2022-09-12T19:41:24.642Z,96632.56
2022-09-12T19:43:27.590Z,96629.34
2022-09-12T19:45:31.712Z,96630.44
2022-09-12T19:47:34.713Z,96627.75
2022-09-12T19:49:37.403Z,96628.03
2022-09-12T19:51:40.478Z,96626.41
2022-09-12T19:53:43.423Z,96626.66
2022-09-12T19:55:46.897Z,96629.38
2022-09-12T19:57:55.096Z,96630.44
2022-09-12T19:59:57.706Z,96631.25
2022-09-12T20:02:02.119Z,96623.44
2022-09-12T20:04:05.373Z,96639.63
2022-09-12T20:06:10.227Z,96630.22
2022-09-12T20:08:12.769Z,96635.59
2022-09-12T20:10:15.999Z,96643.16
2022-09-12T20:12:18.981Z,96636.97
2022-09-12T20:14:22.176Z,96636.97
2022-09-12T20:16:29.229Z,96639.94
2022-09-12T20:18:34.606Z,96638.56
2022-09-12T20:20:39.490Z,96640.19
2022-09-12T20:22:42.268Z,96646.66
2022-09-12T20:24:45.075Z,96645.56
2022-09-12T20:26:47.786Z,96637.78
2022-09-12T20:28:52.025Z,96648.56
2022-09-12T20:30:54.743Z,96638.56
2022-09-12T20:32:57.904Z,96649.38
2022-09-12T20:35:02.585Z,96637.50
2022-09-12T20:37:05.222Z,96641.78
2022-09-12T20:39:08.038Z,96638.00
2022-09-12T20:41:12.287Z,96633.44
2022-09-12T20:43:15.024Z,96628.56
2022-09-12T20:45:18.106Z,96619.66
2022-09-12T20:47:20.751Z,96625.06
2022-09-12T20:49:23.938Z,96618.06
2022-09-12T20:51:30.200Z,96630.44
2022-09-12T20:53:35.007Z,96623.97
2022-09-12T20:55:38.050Z,96621.84
2022-09-12T20:57:40.827Z,96618.06
2022-09-12T20:59:43.467Z,96616.44
2022-09-12T21:01:46.117Z,96609.72
2022-09-12T21:03:49.674Z,96622.91
2022-09-12T21:05:52.959Z,96621.59
2022-09-12T21:07:56.915Z,96631.56
2022-09-12T21:09:59.602Z,96635.34
2022-09-12T21:12:02.694Z,96628.34
2022-09-12T21:14:05.443Z,96630.50
2022-09-12T21:16:11.490Z,96630.78
2022-09-12T21:18:15.296Z,96629.16
2022-09-12T21:20:18.498Z,96628.41
2022-09-12T21:22:21.178Z,96635.13
